sensor_id;sensor_type;location;lat;lon;timestamp;pressure;altitude;pressure_sealevel;temperature;humidity
53270;BME280;39159;45.634;9.420;2023-04-25T00:01:55;98041.88;;;12.67;100.00
53270;BME280;39159;45.634;9.420;2023-04-25T00:04:21;98038.22;;;12.62;100.00
53270;BME280;39159;45.634;9.420;2023-04-25T00:06:47;98040.63;;;12.64;100.00
53270;BME280;39159;45.634;9.420;2023-04-25T00:09:13;98044.63;;;12.67;100.00
53270;BME280;39159;45.634;9.420;2023-04-25T00:11:40;98043.81;;;12.66;100.00
53270;BME280;39159;45.634;9.420;2023-04-25T00:14:05;98049.19;;;12.62;100.00
53270;BME280;39159;45.634;9.420;2023-04-25T00:16:31;98044.84;;;12.61;100.00
53270;BME280;39159;45.634;9.420;2023-04-25T00:18:59;98048.97;;;12.68;100.00
53270;BME280;39159;45.634;9.420;2023-04-25T00:21:25;98047.00;;;12.68;100.00
53270;BME280;39159;45.634;9.420;2023-04-25T00:23:52;98045.06;;;12.69;100.00
53270;BME280;39159;45.634;9.420;2023-04-25T00:26:18;98040.50;;;12.73;100.00
53270;BME280;39159;45.634;9.420;2023-04-25T00:28:46;98042.41;;;12.84;100.00
53270;BME280;39159;45.634;9.420;2023-04-25T00:31:11;98040.84;;;12.83;100.00
53270;BME280;39159;45.634;9.420;2023-04-25T00:33:37;98040.03;;;12.83;100.00
53270;BME280;39159;45.634;9.420;2023-04-25T00:36:03;98043.91;;;12.82;100.00
53270;BME280;39159;45.634;9.420;2023-04-25T00:38:28;98037.41;;;12.86;100.00
53270;BME280;39159;45.634;9.420;2023-04-25T00:40:54;98047.91;;;12.84;100.00
53270;BME280;39159;45.634;9.420;2023-04-25T00:43:21;98036.03;;;12.80;100.00
53270;BME280;39159;45.634;9.420;2023-04-25T00:45:47;98040.63;;;12.76;100.00
53270;BME280;39159;45.634;9.420;2023-04-25T00:48:14;98035.50;;;12.75;99.95
53270;BME280;39159;45.634;9.420;2023-04-25T00:50:40;98036.63;;;12.74;100.00
53270;BME280;39159;45.634;9.420;2023-04-25T00:53:06;98039.72;;;12.72;100.00
53270;BME280;39159;45.634;9.420;2023-04-25T00:55:32;98033.31;;;12.68;99.51
53270;BME280;39159;45.634;9.420;2023-04-25T00:57:59;98023.75;;;12.62;97.89
53270;BME280;39159;45.634;9.420;2023-04-25T01:00:25;98026.72;;;12.57;97.58
53270;BME280;39159;45.634;9.420;2023-04-25T01:02:51;98034.47;;;12.55;97.91
53270;BME280;39159;45.634;9.420;2023-04-25T01:05:17;98036.06;;;12.56;98.25
53270;BME280;39159;45.634;9.420;2023-04-25T01:07:44;98038.81;;;12.56;94.85
53270;BME280;39159;45.634;9.420;2023-04-25T01:10:10;98033.69;;;12.54;96.96
53270;BME280;39159;45.634;9.420;2023-04-25T01:12:36;98034.81;;;12.53;95.88
53270;BME280;39159;45.634;9.420;2023-04-25T01:15:01;98040.28;;;12.53;95.87
53270;BME280;39159;45.634;9.420;2023-04-25T01:17:27;98032.44;;;12.52;96.71
53270;BME280;39159;45.634;9.420;2023-04-25T01:19:54;98032.88;;;12.54;97.74
53270;BME280;39159;45.634;9.420;2023-04-25T01:22:20;98028.22;;;12.54;99.62
53270;BME280;39159;45.634;9.420;2023-04-25T01:24:46;98022.75;;;12.54;97.33
53270;BME280;39159;45.634;9.420;2023-04-25T01:27:12;98027.31;;;12.50;96.13
53270;BME280;39159;45.634;9.420;2023-04-25T01:29:37;98027.19;;;12.47;94.81
53270;BME280;39159;45.634;9.420;2023-04-25T01:32:04;98026.38;;;12.46;94.29
53270;BME280;39159;45.634;9.420;2023-04-25T01:34:30;98024.13;;;12.48;93.59
53270;BME280;39159;45.634;9.420;2023-04-25T01:36:56;98023.41;;;12.51;93.62
53270;BME280;39159;45.634;9.420;2023-04-25T01:39:21;98029.00;;;12.55;92.87
53270;BME280;39159;45.634;9.420;2023-04-25T01:41:47;98031.75;;;12.55;93.04
53270;BME280;39159;45.634;9.420;2023-04-25T01:44:14;98028.78;;;12.60;91.93
53270;BME280;39159;45.634;9.420;2023-04-25T01:46:40;98030.00;;;12.62;91.98
53270;BME280;39159;45.634;9.420;2023-04-25T01:49:05;98030.13;;;12.66;90.70
53270;BME280;39159;45.634;9.420;2023-04-25T01:51:31;98026.81;;;12.60;89.62
53270;BME280;39159;45.634;9.420;2023-04-25T01:53:57;98026.03;;;12.60;89.38
53270;BME280;39159;45.634;9.420;2023-04-25T01:56:23;98022.63;;;12.63;90.40
53270;BME280;39159;45.634;9.420;2023-04-25T01:58:48;98024.44;;;12.59;89.47
53270;BME280;39159;45.634;9.420;2023-04-25T02:01:14;98025.69;;;12.49;90.33
53270;BME280;39159;45.634;9.420;2023-04-25T02:03:40;98025.47;;;12.42;90.74
53270;BME280;39159;45.634;9.420;2023-04-25T02:06:05;98015.22;;;12.39;91.17
53270;BME280;39159;45.634;9.420;2023-04-25T02:08:31;98015.22;;;12.39;90.79
53270;BME280;39159;45.634;9.420;2023-04-25T02:10:57;98013.63;;;12.38;90.72
53270;BME280;39159;45.634;9.420;2023-04-25T02:13:22;98016.13;;;12.43;91.75
53270;BME280;39159;45.634;9.420;2023-04-25T02:15:48;98013.16;;;12.48;90.33
53270;BME280;39159;45.634;9.420;2023-04-25T02:18:13;98010.19;;;12.53;90.14
53270;BME280;39159;45.634;9.420;2023-04-25T02:20:41;98020.00;;;12.54;90.04
53270;BME280;39159;45.634;9.420;2023-04-25T02:23:07;98012.59;;;12.55;89.46
53270;BME280;39159;45.634;9.420;2023-04-25T02:25:32;98010.88;;;12.50;90.67
53270;BME280;39159;45.634;9.420;2023-04-25T02:27:58;98015.00;;;12.44;91.79
53270;BME280;39159;45.634;9.420;2023-04-25T02:30:23;98017.84;;;12.48;91.92
53270;BME280;39159;45.634;9.420;2023-04-25T02:32:49;98015.66;;;12.53;92.29
53270;BME280;39159;45.634;9.420;2023-04-25T02:35:14;98016.13;;;12.55;91.34
53270;BME280;39159;45.634;9.420;2023-04-25T02:37:40;97999.16;;;12.50;87.60
53270;BME280;39159;45.634;9.420;2023-04-25T02:40:06;98005.63;;;12.57;86.74
53270;BME280;39159;45.634;9.420;2023-04-25T02:42:32;98001.75;;;12.58;87.81
53270;BME280;39159;45.634;9.420;2023-04-25T02:44:58;98007.22;;;12.58;88.06
53270;BME280;39159;45.634;9.420;2023-04-25T02:47:23;97998.66;;;12.60;87.95
53270;BME280;39159;45.634;9.420;2023-04-25T02:49:49;98004.72;;;12.53;87.77
53270;BME280;39159;45.634;9.420;2023-04-25T02:52:15;98006.06;;;12.47;88.51
53270;BME280;39159;45.634;9.420;2023-04-25T02:54:40;98005.31;;;12.34;89.32
53270;BME280;39159;45.634;9.420;2023-04-25T02:57:06;98002.13;;;12.32;88.61
53270;BME280;39159;45.634;9.420;2023-04-25T02:59:33;98006.81;;;12.32;87.77
53270;BME280;39159;45.634;9.420;2023-04-25T03:01:59;98015.22;;;12.39;87.95
53270;BME280;39159;45.634;9.420;2023-04-25T03:04:24;98017.72;;;12.44;87.87
53270;BME280;39159;45.634;9.420;2023-04-25T03:06:50;98018.97;;;12.47;87.73
53270;BME280;39159;45.634;9.420;2023-04-25T03:09:16;98020.91;;;12.46;88.07
53270;BME280;39159;45.634;9.420;2023-04-25T03:11:41;98022.97;;;12.37;87.73
53270;BME280;39159;45.634;9.420;2023-04-25T03:14:07;98024.00;;;12.32;87.60
53270;BME280;39159;45.634;9.420;2023-04-25T03:16:33;98021.16;;;12.29;87.74
53270;BME280;39159;45.634;9.420;2023-04-25T03:18:59;98026.16;;;12.27;86.01
53270;BME280;39159;45.634;9.420;2023-04-25T03:21:24;98029.81;;;12.18;84.91
53270;BME280;39159;45.634;9.420;2023-04-25T03:23:50;98028.53;;;12.16;85.62
53270;BME280;39159;45.634;9.420;2023-04-25T03:26:15;98028.66;;;12.19;84.99
53270;BME280;39159;45.634;9.420;2023-04-25T03:28:41;98033.34;;;12.19;84.37
53270;BME280;39159;45.634;9.420;2023-04-25T03:31:07;98026.16;;;12.14;83.48
53270;BME280;39159;45.634;9.420;2023-04-25T03:33:32;98019.88;;;12.14;76.48
53270;BME280;39159;45.634;9.420;2023-04-25T03:35:57;98017.97;;;12.14;69.04
53270;BME280;39159;45.634;9.420;2023-04-25T03:38:23;98008.28;;;12.17;65.04
53270;BME280;39159;45.634;9.420;2023-04-25T03:40:50;98016.16;;;12.18;63.72
53270;BME280;39159;45.634;9.420;2023-04-25T03:43:16;98018.63;;;12.11;61.45
53270;BME280;39159;45.634;9.420;2023-04-25T03:45:41;98015.34;;;12.06;60.89
53270;BME280;39159;45.634;9.420;2023-04-25T03:48:07;98014.53;;;12.05;60.51
53270;BME280;39159;45.634;9.420;2023-04-25T03:50:32;98007.91;;;12.06;61.07
53270;BME280;39159;45.634;9.420;2023-04-25T03:52:58;98009.41;;;12.03;64.16
53270;BME280;39159;45.634;9.420;2023-04-25T03:55:23;98000.59;;;11.98;61.11
53270;BME280;39159;45.634;9.420;2023-04-25T03:57:49;98001.53;;;11.90;59.89
53270;BME280;39159;45.634;9.420;2023-04-25T04:00:14;98002.72;;;11.80;58.67
53270;BME280;39159;45.634;9.420;2023-04-25T04:02:40;98013.19;;;11.66;63.60
53270;BME280;39159;45.634;9.420;2023-04-25T04:05:06;98009.66;;;11.65;72.19
53270;BME280;39159;45.634;9.420;2023-04-25T04:07:31;98010.44;;;11.66;80.07
53270;BME280;39159;45.634;9.420;2023-04-25T04:09:58;98007.38;;;11.67;83.50
53270;BME280;39159;45.634;9.420;2023-04-25T04:12:24;98004.28;;;11.69;86.49
53270;BME280;39159;45.634;9.420;2023-04-25T04:14:49;98006.69;;;11.70;87.96
53270;BME280;39159;45.634;9.420;2023-04-25T04:17:15;97998.97;;;11.72;90.02
53270;BME280;39159;45.634;9.420;2023-04-25T04:19:41;98003.72;;;11.63;90.49
53270;BME280;39159;45.634;9.420;2023-04-25T04:22:06;98002.47;;;11.60;92.06
53270;BME280;39159;45.634;9.420;2023-04-25T04:24:32;97998.91;;;11.60;91.91
53270;BME280;39159;45.634;9.420;2023-04-25T04:26:58;98007.34;;;11.55;92.71
53270;BME280;39159;45.634;9.420;2023-04-25T04:29:24;98012.19;;;11.49;93.93
53270;BME280;39159;45.634;9.420;2023-04-25T04:31:50;98015.88;;;11.53;94.79
53270;BME280;39159;45.634;9.420;2023-04-25T04:34:17;98012.66;;;11.51;95.13
53270;BME280;39159;45.634;9.420;2023-04-25T04:36:44;98013.69;;;11.47;95.24
53270;BME280;39159;45.634;9.420;2023-04-25T04:39:11;98012.75;;;11.43;97.53
53270;BME280;39159;45.634;9.420;2023-04-25T04:41:37;98020.84;;;11.39;97.58
53270;BME280;39159;45.634;9.420;2023-04-25T04:44:02;98013.97;;;11.33;97.55
53270;BME280;39159;45.634;9.420;2023-04-25T04:46:28;98020.44;;;11.28;97.30
53270;BME280;39159;45.634;9.420;2023-04-25T04:48:53;98017.13;;;11.23;97.99
53270;BME280;39159;45.634;9.420;2023-04-25T04:51:19;98017.53;;;11.12;99.67
53270;BME280;39159;45.634;9.420;2023-04-25T04:53:46;98019.34;;;11.08;100.00
53270;BME280;39159;45.634;9.420;2023-04-25T04:56:11;98021.75;;;11.10;100.00
53270;BME280;39159;45.634;9.420;2023-04-25T04:58:37;98025.25;;;11.10;100.00
53270;BME280;39159;45.634;9.420;2023-04-25T05:01:02;98023.00;;;11.12;96.93
53270;BME280;39159;45.634;9.420;2023-04-25T05:03:28;98024.41;;;10.97;95.03
53270;BME280;39159;45.634;9.420;2023-04-25T05:05:54;98021.25;;;10.87;92.30
53270;BME280;39159;45.634;9.420;2023-04-25T05:08:20;98022.53;;;10.89;87.82
53270;BME280;39159;45.634;9.420;2023-04-25T05:10:45;98022.00;;;10.96;83.25
53270;BME280;39159;45.634;9.420;2023-04-25T05:13:11;98017.31;;;11.17;94.03
53270;BME280;39159;45.634;9.420;2023-04-25T05:15:37;98012.31;;;11.40;95.21
53270;BME280;39159;45.634;9.420;2023-04-25T05:18:02;98018.34;;;11.46;80.59
53270;BME280;39159;45.634;9.420;2023-04-25T05:20:28;98016.22;;;11.52;77.09
53270;BME280;39159;45.634;9.420;2023-04-25T05:22:53;98019.75;;;11.65;80.34
53270;BME280;39159;45.634;9.420;2023-04-25T05:25:19;98013.88;;;11.75;75.86
53270;BME280;39159;45.634;9.420;2023-04-25T05:27:44;98016.91;;;11.94;77.31
53270;BME280;39159;45.634;9.420;2023-04-25T05:30:10;98028.06;;;11.89;75.80
53270;BME280;39159;45.634;9.420;2023-04-25T05:32:35;98031.53;;;11.77;74.63
53270;BME280;39159;45.634;9.420;2023-04-25T05:35:01;98034.34;;;11.69;71.84
53270;BME280;39159;45.634;9.420;2023-04-25T05:37:28;98036.31;;;11.68;70.27
53270;BME280;39159;45.634;9.420;2023-04-25T05:39:55;98033.78;;;11.63;72.71
53270;BME280;39159;45.634;9.420;2023-04-25T05:42:21;98043.25;;;11.66;68.39
53270;BME280;39159;45.634;9.420;2023-04-25T05:44:46;98036.63;;;11.67;69.28
53270;BME280;39159;45.634;9.420;2023-04-25T05:47:12;98040.19;;;11.67;67.88
53270;BME280;39159;45.634;9.420;2023-04-25T05:49:37;98039.72;;;11.77;67.49
53270;BME280;39159;45.634;9.420;2023-04-25T05:52:03;98037.94;;;11.81;66.51
53270;BME280;39159;45.634;9.420;2023-04-25T05:54:28;98043.44;;;11.94;67.09
53270;BME280;39159;45.634;9.420;2023-04-25T05:56:55;98032.53;;;12.06;68.61
53270;BME280;39159;45.634;9.420;2023-04-25T05:59:21;98032.66;;;12.10;68.15
53270;BME280;39159;45.634;9.420;2023-04-25T06:01:46;98023.88;;;12.16;67.31
53270;BME280;39159;45.634;9.420;2023-04-25T06:04:12;98036.75;;;12.40;67.54
53270;BME280;39159;45.634;9.420;2023-04-25T06:06:37;98032.66;;;12.34;66.74
53270;BME280;39159;45.634;9.420;2023-04-25T06:09:03;98041.31;;;12.49;67.26
53270;BME280;39159;45.634;9.420;2023-04-25T06:11:28;98029.34;;;12.53;66.98
53270;BME280;39159;45.634;9.420;2023-04-25T06:13:54;98031.72;;;12.67;68.66
53270;BME280;39159;45.634;9.420;2023-04-25T06:16:19;98031.38;;;12.81;67.50
53270;BME280;39159;45.634;9.420;2023-04-25T06:18:45;98018.81;;;12.92;66.15
53270;BME280;39159;45.634;9.420;2023-04-25T06:21:10;98023.03;;;13.18;67.20
53270;BME280;39159;45.634;9.420;2023-04-25T06:23:36;98022.19;;;13.42;65.85
53270;BME280;39159;45.634;9.420;2023-04-25T06:26:01;98019.66;;;13.65;66.63
53270;BME280;39159;45.634;9.420;2023-04-25T06:28:27;98021.13;;;13.91;65.87
53270;BME280;39159;45.634;9.420;2023-04-25T06:30:52;98021.75;;;14.16;63.72
53270;BME280;39159;45.634;9.420;2023-04-25T06:33:18;98028.84;;;14.33;63.11
53270;BME280;39159;45.634;9.420;2023-04-25T06:35:43;98029.56;;;14.61;63.41
53270;BME280;39159;45.634;9.420;2023-04-25T06:38:09;98030.97;;;14.90;63.12
53270;BME280;39159;45.634;9.420;2023-04-25T06:40:34;98040.59;;;15.00;62.09
53270;BME280;39159;45.634;9.420;2023-04-25T06:42:59;98041.78;;;15.19;62.23
53270;BME280;39159;45.634;9.420;2023-04-25T06:45:25;98044.22;;;14.69;63.63
53270;BME280;39159;45.634;9.420;2023-04-25T06:47:50;98027.16;;;14.60;65.97
53270;BME280;39159;45.634;9.420;2023-04-25T06:50:16;98027.31;;;14.51;67.82
53270;BME280;39159;45.634;9.420;2023-04-25T06:52:41;98034.94;;;14.42;67.84
53270;BME280;39159;45.634;9.420;2023-04-25T06:55:07;98030.41;;;14.34;65.19
53270;BME280;39159;45.634;9.420;2023-04-25T06:57:32;98031.28;;;14.54;68.65
53270;BME280;39159;45.634;9.420;2023-04-25T06:59:58;98040.00;;;14.91;70.01
53270;BME280;39159;45.634;9.420;2023-04-25T07:02:23;98036.97;;;14.96;65.64
53270;BME280;39159;45.634;9.420;2023-04-25T07:04:49;98027.50;;;14.74;65.91
53270;BME280;39159;45.634;9.420;2023-04-25T07:07:14;98031.56;;;14.64;67.05
53270;BME280;39159;45.634;9.420;2023-04-25T07:09:40;98043.88;;;15.06;67.79
53270;BME280;39159;45.634;9.420;2023-04-25T07:12:05;98041.78;;;15.38;63.65
53270;BME280;39159;45.634;9.420;2023-04-25T07:14:31;98040.03;;;15.69;66.08
53270;BME280;39159;45.634;9.420;2023-04-25T07:16:56;98046.75;;;15.91;62.64
53270;BME280;39159;45.634;9.420;2023-04-25T07:19:23;98041.44;;;16.02;63.08
53270;BME280;39159;45.634;9.420;2023-04-25T07:21:52;98038.66;;;16.21;61.56
53270;BME280;39159;45.634;9.420;2023-04-25T07:24:17;98040.34;;;16.29;61.14
53270;BME280;39159;45.634;9.420;2023-04-25T07:26:43;98039.03;;;16.46;59.46
53270;BME280;39159;45.634;9.420;2023-04-25T07:29:08;98039.50;;;16.25;60.04
53270;BME280;39159;45.634;9.420;2023-04-25T07:31:34;98048.47;;;16.45;62.17
53270;BME280;39159;45.634;9.420;2023-04-25T07:33:59;98057.13;;;16.70;62.21
53270;BME280;39159;45.634;9.420;2023-04-25T07:36:25;98047.25;;;16.92;59.16
53270;BME280;39159;45.634;9.420;2023-04-25T07:38:51;98044.91;;;16.68;60.15
53270;BME280;39159;45.634;9.420;2023-04-25T07:41:17;98035.44;;;16.69;60.28
53270;BME280;39159;45.634;9.420;2023-04-25T07:43:42;98038.53;;;16.41;60.81
53270;BME280;39159;45.634;9.420;2023-04-25T07:46:07;98041.34;;;15.94;61.05
53270;BME280;39159;45.634;9.420;2023-04-25T07:48:33;98050.72;;;15.93;61.11
53270;BME280;39159;45.634;9.420;2023-04-25T07:50:58;98049.94;;;15.93;61.14
53270;BME280;39159;45.634;9.420;2023-04-25T07:53:24;98052.00;;;15.77;58.85
53270;BME280;39159;45.634;9.420;2023-04-25T07:55:50;98048.75;;;15.71;60.68
53270;BME280;39159;45.634;9.420;2023-04-25T07:58:16;98048.72;;;16.13;58.92
53270;BME280;39159;45.634;9.420;2023-04-25T08:00:46;98046.34;;;16.35;57.26
53270;BME280;39159;45.634;9.420;2023-04-25T08:03:11;98055.84;;;16.64;56.72
53270;BME280;39159;45.634;9.420;2023-04-25T08:05:37;98056.31;;;16.93;58.11
53270;BME280;39159;45.634;9.420;2023-04-25T08:08:03;98053.53;;;16.66;58.81
53270;BME280;39159;45.634;9.420;2023-04-25T08:10:29;98064.81;;;16.34;60.54
53270;BME280;39159;45.634;9.420;2023-04-25T08:12:55;98058.81;;;16.29;61.10
53270;BME280;39159;45.634;9.420;2023-04-25T08:15:20;98058.41;;;16.04;63.34
53270;BME280;39159;45.634;9.420;2023-04-25T08:17:45;98060.09;;;15.89;63.68
53270;BME280;39159;45.634;9.420;2023-04-25T08:20:12;98057.59;;;16.03;62.28
53270;BME280;39159;45.634;9.420;2023-04-25T08:22:38;98060.81;;;15.86;61.86
53270;BME280;39159;45.634;9.420;2023-04-25T08:25:04;98064.00;;;15.88;62.77
53270;BME280;39159;45.634;9.420;2023-04-25T08:27:29;98063.03;;;16.00;61.08
53270;BME280;39159;45.634;9.420;2023-04-25T08:29:55;98066.88;;;15.95;63.57
53270;BME280;39159;45.634;9.420;2023-04-25T08:32:20;98064.53;;;16.16;62.37
53270;BME280;39159;45.634;9.420;2023-04-25T08:34:46;98061.09;;;16.73;57.03
53270;BME280;39159;45.634;9.420;2023-04-25T08:37:12;98061.72;;;17.16;57.93
53270;BME280;39159;45.634;9.420;2023-04-25T08:39:37;98070.34;;;17.41;56.89
53270;BME280;39159;45.634;9.420;2023-04-25T08:42:06;98068.00;;;17.43;57.37
53270;BME280;39159;45.634;9.420;2023-04-25T08:44:35;98063.97;;;17.07;57.10
53270;BME280;39159;45.634;9.420;2023-04-25T08:47:04;98071.84;;;16.55;60.56
53270;BME280;39159;45.634;9.420;2023-04-25T08:49:33;98070.16;;;16.73;58.85
53270;BME280;39159;45.634;9.420;2023-04-25T08:52:00;98074.19;;;16.30;58.11
53270;BME280;39159;45.634;9.420;2023-04-25T08:54:27;98075.50;;;16.63;59.39
53270;BME280;39159;45.634;9.420;2023-04-25T08:56:54;98067.66;;;17.18;55.97
53270;BME280;39159;45.634;9.420;2023-04-25T08:59:21;98067.59;;;17.41;56.34
53270;BME280;39159;45.634;9.420;2023-04-25T09:01:49;98071.91;;;17.42;57.12
53270;BME280;39159;45.634;9.420;2023-04-25T09:04:15;98068.66;;;17.63;57.14
53270;BME280;39159;45.634;9.420;2023-04-25T09:06:40;98070.50;;;18.27;54.77
53270;BME280;39159;45.634;9.420;2023-04-25T09:09:08;98057.91;;;18.77;56.18
53270;BME280;39159;45.634;9.420;2023-04-25T09:11:35;98069.47;;;18.94;52.06
53270;BME280;39159;45.634;9.420;2023-04-25T09:14:21;98070.75;;;18.11;55.90
53270;BME280;39159;45.634;9.420;2023-04-25T09:19:26;98071.94;;;18.10;56.12
53270;BME280;39159;45.634;9.420;2023-04-25T09:21:56;98068.03;;;18.18;56.62
53270;BME280;39159;45.634;9.420;2023-04-25T09:24:32;98084.81;;;18.39;54.03
53270;BME280;39159;45.634;9.420;2023-04-25T09:26:58;98087.38;;;18.18;56.06
53270;BME280;39159;45.634;9.420;2023-04-25T09:29:34;98080.78;;;17.89;55.92
53270;BME280;39159;45.634;9.420;2023-04-25T09:32:19;98071.69;;;17.88;55.60
53270;BME280;39159;45.634;9.420;2023-04-25T09:34:47;98081.13;;;17.84;55.02
53270;BME280;39159;45.634;9.420;2023-04-25T09:37:25;98083.91;;;17.87;54.79
53270;BME280;39159;45.634;9.420;2023-04-25T09:39:53;98091.03;;;18.29;55.12
53270;BME280;39159;45.634;9.420;2023-04-25T09:42:22;98084.50;;;18.48;52.36
53270;BME280;39159;45.634;9.420;2023-04-25T09:44:51;98083.50;;;18.71;55.12
53270;BME280;39159;45.634;9.420;2023-04-25T09:47:17;98077.78;;;18.97;52.11
53270;BME280;39159;45.634;9.420;2023-04-25T09:49:43;98085.84;;;19.24;52.27
53270;BME280;39159;45.634;9.420;2023-04-25T09:52:13;98089.63;;;18.98;51.83
53270;BME280;39159;45.634;9.420;2023-04-25T09:54:40;98081.47;;;18.19;55.16
53270;BME280;39159;45.634;9.420;2023-04-25T09:57:11;98085.28;;;18.49;54.65
53270;BME280;39159;45.634;9.420;2023-04-25T10:00:04;98085.19;;;18.34;54.09
53270;BME280;39159;45.634;9.420;2023-04-25T10:02:34;98087.25;;;18.04;57.28
53270;BME280;39159;45.634;9.420;2023-04-25T10:05:02;98090.13;;;18.14;56.86
53270;BME280;39159;45.634;9.420;2023-04-25T10:07:31;98090.25;;;17.57;58.73
53270;BME280;39159;45.634;9.420;2023-04-25T10:10:01;98097.81;;;17.98;57.23
53270;BME280;39159;45.634;9.420;2023-04-25T10:12:30;98092.66;;;18.34;53.50
53270;BME280;39159;45.634;9.420;2023-04-25T10:14:59;98095.03;;;18.35;55.16
53270;BME280;39159;45.634;9.420;2023-04-25T10:17:26;98086.75;;;18.35;55.47
53270;BME280;39159;45.634;9.420;2023-04-25T10:19:54;98089.56;;;18.87;53.35
53270;BME280;39159;45.634;9.420;2023-04-25T10:22:41;98086.25;;;19.30;50.93
53270;BME280;39159;45.634;9.420;2023-04-25T10:25:08;98077.22;;;19.40;50.74
53270;BME280;39159;45.634;9.420;2023-04-25T10:27:35;98080.09;;;19.65;52.26
53270;BME280;39159;45.634;9.420;2023-04-25T10:30:08;98071.63;;;19.25;52.31
53270;BME280;39159;45.634;9.420;2023-04-25T10:32:38;98069.97;;;19.14;52.00
53270;BME280;39159;45.634;9.420;2023-04-25T10:35:17;98072.75;;;19.14;51.43
53270;BME280;39159;45.634;9.420;2023-04-25T10:40:33;98078.81;;;19.37;50.97
53270;BME280;39159;45.634;9.420;2023-04-25T10:45:57;98069.72;;;18.26;55.53
53270;BME280;39159;45.634;9.420;2023-04-25T10:48:31;98057.91;;;17.92;56.14
53270;BME280;39159;45.634;9.420;2023-04-25T10:53:34;98048.09;;;17.60;55.52
53270;BME280;39159;45.634;9.420;2023-04-25T10:56:00;98056.63;;;17.48;56.27
53270;BME280;39159;45.634;9.420;2023-04-25T10:58:25;98051.81;;;17.75;57.00
53270;BME280;39159;45.634;9.420;2023-04-25T11:00:51;98055.53;;;18.28;54.83
53270;BME280;39159;45.634;9.420;2023-04-25T11:03:17;98052.28;;;18.67;51.90
53270;BME280;39159;45.634;9.420;2023-04-25T11:05:45;98054.47;;;18.95;51.63
53270;BME280;39159;45.634;9.420;2023-04-25T11:08:11;98038.22;;;18.90;51.00
53270;BME280;39159;45.634;9.420;2023-04-25T11:10:39;98044.44;;;19.42;52.08
53270;BME280;39159;45.634;9.420;2023-04-25T11:13:05;98036.75;;;20.19;49.70
53270;BME280;39159;45.634;9.420;2023-04-25T11:15:31;98036.75;;;20.16;44.64
53270;BME280;39159;45.634;9.420;2023-04-25T11:17:56;98035.88;;;19.72;47.80
53270;BME280;39159;45.634;9.420;2023-04-25T11:20:22;98022.38;;;18.79;51.28
53270;BME280;39159;45.634;9.420;2023-04-25T11:22:51;98028.53;;;18.10;54.99
53270;BME280;39159;45.634;9.420;2023-04-25T11:25:16;98029.69;;;18.06;54.71
53270;BME280;39159;45.634;9.420;2023-04-25T11:27:57;98026.78;;;17.57;54.82
53270;BME280;39159;45.634;9.420;2023-04-25T11:30:23;98030.09;;;17.36;55.98
53270;BME280;39159;45.634;9.420;2023-04-25T11:32:49;98037.69;;;17.13;57.08
53270;BME280;39159;45.634;9.420;2023-04-25T11:35:16;98037.16;;;17.04;59.32
53270;BME280;39159;45.634;9.420;2023-04-25T11:37:43;98029.59;;;16.97;65.00
53270;BME280;39159;45.634;9.420;2023-04-25T11:40:09;98042.38;;;16.82;65.15
53270;BME280;39159;45.634;9.420;2023-04-25T11:42:39;98046.66;;;16.80;66.25
53270;BME280;39159;45.634;9.420;2023-04-25T11:45:08;98034.59;;;16.65;65.92
53270;BME280;39159;45.634;9.420;2023-04-25T11:47:35;98046.13;;;16.47;67.93
53270;BME280;39159;45.634;9.420;2023-04-25T11:50:05;98045.22;;;16.40;71.84
53270;BME280;39159;45.634;9.420;2023-04-25T11:52:44;98042.19;;;16.22;72.24
53270;BME280;39159;45.634;9.420;2023-04-25T11:55:13;98033.63;;;16.04;74.39
53270;BME280;39159;45.634;9.420;2023-04-25T11:57:40;98022.59;;;15.81;81.44
53270;BME280;39159;45.634;9.420;2023-04-25T12:02:35;98009.31;;;15.24;80.69
53270;BME280;39159;45.634;9.420;2023-04-25T12:05:01;98016.41;;;15.06;81.67
53270;BME280;39159;45.634;9.420;2023-04-25T12:07:29;98022.00;;;14.93;85.82
53270;BME280;39159;45.634;9.420;2023-04-25T12:09:55;98032.75;;;14.83;88.58
53270;BME280;39159;45.634;9.420;2023-04-25T12:12:21;98023.66;;;14.79;91.77
53270;BME280;39159;45.634;9.420;2023-04-25T12:14:47;98019.50;;;14.69;91.88
53270;BME280;39159;45.634;9.420;2023-04-25T12:17:14;98018.72;;;14.52;95.31
53270;BME280;39159;45.634;9.420;2023-04-25T12:19:39;98018.31;;;14.35;99.03
53270;BME280;39159;45.634;9.420;2023-04-25T12:22:20;98028.50;;;14.34;100.00
53270;BME280;39159;45.634;9.420;2023-04-25T12:24:46;98033.28;;;14.21;100.00
53270;BME280;39159;45.634;9.420;2023-04-25T12:27:14;98033.72;;;14.23;100.00
53270;BME280;39159;45.634;9.420;2023-04-25T12:29:55;98026.00;;;14.13;100.00
53270;BME280;39159;45.634;9.420;2023-04-25T12:32:21;98019.56;;;14.21;100.00
53270;BME280;39159;45.634;9.420;2023-04-25T12:34:47;98023.63;;;14.27;100.00
53270;BME280;39159;45.634;9.420;2023-04-25T12:37:13;98033.25;;;14.37;100.00
53270;BME280;39159;45.634;9.420;2023-04-25T12:39:38;98029.53;;;14.45;100.00
53270;BME280;39159;45.634;9.420;2023-04-25T12:42:04;98021.75;;;14.47;100.00
53270;BME280;39159;45.634;9.420;2023-04-25T12:44:33;98033.38;;;14.57;100.00
53270;BME280;39159;45.634;9.420;2023-04-25T12:46:58;98036.91;;;14.57;100.00
53270;BME280;39159;45.634;9.420;2023-04-25T12:49:24;98046.19;;;14.68;100.00
53270;BME280;39159;45.634;9.420;2023-04-25T12:51:50;98034.56;;;14.75;100.00
53270;BME280;39159;45.634;9.420;2023-04-25T12:54:17;98036.69;;;14.82;100.00
53270;BME280;39159;45.634;9.420;2023-04-25T12:56:42;98032.59;;;14.76;100.00
53270;BME280;39159;45.634;9.420;2023-04-25T12:59:08;98038.25;;;14.83;99.59
53270;BME280;39159;45.634;9.420;2023-04-25T13:01:34;98041.09;;;14.86;100.00
53270;BME280;39159;45.634;9.420;2023-04-25T13:04:00;98044.81;;;14.94;98.03
53270;BME280;39159;45.634;9.420;2023-04-25T13:06:25;98039.03;;;15.38;100.00
53270;BME280;39159;45.634;9.420;2023-04-25T13:08:51;98041.28;;;15.52;100.00
53270;BME280;39159;45.634;9.420;2023-04-25T13:11:17;98045.63;;;15.53;100.00